Time;durP1;ratioP1;P1;durP2;ratioP2;P2;SDS_P1;SDS_P2;PMS_P1;PMS_P2;Temp;Humidity;BMP_temperature;BMP_pressure;BME280_temperature;BME280_humidity;BME280_pressure;Samples;Min_cycle;Max_cycle;Signal;HPM_P1;HPM_P2
2023/05/05 00:01:55;;;;;;;8.63;6.93;;;;;;;-144.85;100.00;61331.59;5059645;28;35763;-81
2023/05/05 00:04:23;;;;;;;10.02;7.05;;;;;;;-144.85;100.00;61331.59;5092605;28;32902;-81
2023/05/05 00:06:50;;;;;;;12.75;6.72;;;;;;;-144.85;100.00;61331.59;5043612;28;30480;-82
2023/05/05 00:09:17;;;;;;;8.20;6.90;;;;;;;-144.85;100.00;61331.59;5060157;28;31442;-81
2023/05/05 00:11:44;;;;;;;12.02;7.25;;;;;;;-144.85;100.00;61331.59;5078102;28;32629;-81
2023/05/05 00:14:11;;;;;;;13.00;7.53;;;;;;;-144.85;100.00;61331.59;5060731;28;32386;-82
2023/05/05 00:16:38;;;;;;;10.95;7.68;;;;;;;-144.85;100.00;61331.59;5078227;28;31341;-81
2023/05/05 00:19:06;;;;;;;14.18;7.63;;;;;;;-144.85;100.00;61331.59;5059839;28;33056;-81
2023/05/05 00:21:33;;;;;;;12.50;7.30;;;;;;;-144.85;100.00;61331.59;5092654;28;32404;-82
2023/05/05 00:24:00;;;;;;;11.00;7.45;;;;;;;-144.85;100.00;61331.59;5060741;28;31309;-82
2023/05/05 00:26:27;;;;;;;10.55;8.00;;;;;;;-144.85;100.00;61331.59;5058838;28;31578;-82
2023/05/05 00:28:54;;;;;;;11.73;8.15;;;;;;;-144.85;100.00;61331.59;5060684;28;33216;-82
2023/05/05 00:31:22;;;;;;;11.15;8.75;;;;;;;-144.85;100.00;61331.59;5064039;28;30979;-80
2023/05/05 00:33:49;;;;;;;12.38;8.40;;;;;;;-144.85;100.00;61331.59;5084720;28;31757;-81
2023/05/05 00:36:17;;;;;;;13.32;8.38;;;;;;;-144.85;100.00;61331.59;5082420;28;31186;-82
2023/05/05 00:38:44;;;;;;;12.10;8.90;;;;;;;-144.85;100.00;61331.59;5065530;28;31074;-82
2023/05/05 00:41:11;;;;;;;12.90;9.25;;;;;;;-144.85;100.00;61331.59;5048405;28;31352;-82
2023/05/05 00:43:38;;;;;;;12.35;8.75;;;;;;;-144.85;100.00;61331.59;5064869;28;31323;-82
2023/05/05 00:46:20;;;;;;;12.02;8.55;;;;;;;-144.85;100.00;61331.59;5083817;28;31637;-82
2023/05/05 00:48:49;;;;;;;14.20;9.02;;;;;;;-144.85;100.00;61331.59;5065073;28;32971;-81
2023/05/05 00:51:18;;;;;;;14.00;9.63;;;;;;;-144.85;100.00;61331.59;5082766;28;31523;-81
2023/05/05 00:53:46;;;;;;;15.70;10.25;;;;;;;-144.85;100.00;61331.59;5066294;28;32223;-81
2023/05/05 00:56:15;;;;;;;17.20;10.18;;;;;;;-144.85;100.00;61331.59;5083251;28;30367;-82
2023/05/05 00:58:43;;;;;;;13.45;9.77;;;;;;;-144.85;100.00;61331.59;5084100;28;32462;-81
2023/05/05 01:01:11;;;;;;;13.88;9.52;;;;;;;-144.85;100.00;61331.59;5069762;28;32999;-81
2023/05/05 01:03:40;;;;;;;18.13;10.02;;;;;;;-144.85;100.00;61331.59;5072999;28;30787;-81
2023/05/05 01:06:17;;;;;;;13.30;10.43;;;;;;;-144.85;100.00;61331.59;5062368;28;33469;-81
2023/05/05 01:09:16;;;;;;;15.75;10.55;;;;;;;-144.85;100.00;61331.59;5065125;28;31404;-82
2023/05/05 01:11:55;;;;;;;13.93;10.80;;;;;;;-144.85;100.00;61331.59;5052487;28;32344;-82
2023/05/05 01:14:30;;;;;;;15.27;11.27;;;;;;;-144.85;100.00;61331.59;5084198;28;31988;-83
2023/05/05 01:17:06;;;;;;;17.17;12.13;;;;;;;-144.85;100.00;61331.59;5081694;28;32586;-80
2023/05/05 01:19:46;;;;;;;14.65;11.00;;;;;;;-144.85;100.00;61331.59;5068307;28;31544;-83
2023/05/05 01:22:17;;;;;;;15.35;11.50;;;;;;;-144.85;100.00;61331.59;5084312;28;33056;-81
2023/05/05 01:24:59;;;;;;;16.40;11.27;;;;;;;-144.85;100.00;61331.59;5050920;28;30888;-83
2023/05/05 01:27:26;;;;;;;14.90;11.68;;;;;;;-144.85;100.00;61331.59;5064539;28;30779;-81
2023/05/05 01:30:16;;;;;;;14.48;11.10;;;;;;;-144.85;100.00;61331.59;5082754;28;32762;-82
2023/05/05 01:32:54;;;;;;;15.00;11.73;;;;;;;-144.85;100.00;61331.59;5063094;28;31363;-81
2023/05/05 01:35:36;;;;;;;15.27;11.55;;;;;;;-144.85;100.00;61331.59;5078832;28;32674;-81
2023/05/05 01:38:13;;;;;;;14.75;10.77;;;;;;;-144.85;100.00;61331.59;5064116;28;30481;-82
2023/05/05 01:40:47;;;;;;;15.68;11.23;;;;;;;-144.85;100.00;61331.59;5065777;28;31745;-81
2023/05/05 01:43:17;;;;;;;13.18;10.77;;;;;;;-144.85;100.00;61331.59;5065905;28;30976;-81
2023/05/05 01:45:46;;;;;;;14.77;10.57;;;;;;;-144.85;100.00;61331.59;5065120;28;30196;-82
2023/05/05 01:48:17;;;;;;;14.70;10.50;;;;;;;-144.85;100.00;61331.59;5071925;28;31813;-81
2023/05/05 01:50:47;;;;;;;16.13;10.43;;;;;;;-144.85;100.00;61331.59;5070366;28;33767;-82
2023/05/05 01:53:16;;;;;;;14.52;10.98;;;;;;;-144.85;100.00;61331.59;5081080;28;31436;-81
2023/05/05 01:55:45;;;;;;;14.18;11.35;;;;;;;-144.85;100.00;61331.59;5083371;28;32973;-81
2023/05/05 01:58:15;;;;;;;15.00;10.98;;;;;;;-144.85;100.00;61331.59;5063637;28;30841;-81
2023/05/05 02:00:43;;;;;;;13.38;11.02;;;;;;;-144.85;100.00;61331.59;5063382;28;32801;-82
2023/05/05 02:03:13;;;;;;;17.02;11.52;;;;;;;-144.85;100.00;61331.59;5062642;28;31519;-82
2023/05/05 02:05:42;;;;;;;14.05;10.45;;;;;;;-144.85;100.00;61331.59;5062668;28;30747;-82
2023/05/05 02:08:10;;;;;;;15.43;10.52;;;;;;;-144.85;100.00;61331.59;5049264;28;32244;-80
2023/05/05 02:10:42;;;;;;;14.75;11.18;;;;;;;-144.85;100.00;61331.59;5090156;28;31305;-81
2023/05/05 02:13:17;;;;;;;14.57;10.80;;;;;;;-144.85;100.00;61331.59;5076917;28;31036;-83
2023/05/05 02:15:45;;;;;;;17.75;11.10;;;;;;;-144.85;100.00;61331.59;5061327;28;30547;-82
2023/05/05 02:18:13;;;;;;;15.98;10.95;;;;;;;-144.85;100.00;61331.59;5062663;28;30597;-81
2023/05/05 02:20:40;;;;;;;14.40;10.95;;;;;;;-144.85;100.00;61331.59;5063128;28;31790;-81
2023/05/05 02:23:07;;;;;;;17.55;11.43;;;;;;;-144.85;100.00;61331.59;5042557;28;32591;-82
2023/05/05 02:25:41;;;;;;;15.65;10.73;;;;;;;-144.85;100.00;61331.59;5081570;28;32454;-81
2023/05/05 02:28:14;;;;;;;12.90;10.55;;;;;;;-144.85;100.00;61331.59;5062239;28;31476;-81
2023/05/05 02:30:42;;;;;;;14.65;10.88;;;;;;;-144.85;100.00;61331.59;5063118;28;32897;-81
2023/05/05 02:33:15;;;;;;;13.23;10.35;;;;;;;-144.85;100.00;61331.59;5045424;28;31295;-81
2023/05/05 02:35:45;;;;;;;15.70;10.55;;;;;;;-144.85;100.00;61331.59;5044515;28;32532;-81
2023/05/05 02:38:16;;;;;;;12.93;10.00;;;;;;;-144.85;100.00;61331.59;5045497;28;32186;-82
2023/05/05 02:40:49;;;;;;;14.73;10.93;;;;;;;-144.85;100.00;61331.59;5061195;28;32103;-81
2023/05/05 02:43:20;;;;;;;13.32;9.85;;;;;;;-144.85;100.00;61331.59;5044952;28;31078;-81
2023/05/05 02:45:48;;;;;;;14.20;10.15;;;;;;;-144.85;100.00;61331.59;5078058;28;31052;-82
2023/05/05 02:48:16;;;;;;;13.25;9.35;;;;;;;-144.85;100.00;61331.59;5065387;28;31646;-81
2023/05/05 02:50:43;;;;;;;13.45;10.15;;;;;;;-144.85;100.00;61331.59;5047688;28;31385;-81
2023/05/05 02:53:29;;;;;;;13.40;9.85;;;;;;;-144.85;100.00;61331.59;5060504;28;30962;-81
2023/05/05 02:56:06;;;;;;;14.15;10.23;;;;;;;-144.85;100.00;61331.59;5062281;28;33324;-82
2023/05/05 02:58:51;;;;;;;13.18;9.85;;;;;;;-144.85;100.00;61331.59;5075786;28;30617;-81
2023/05/05 03:01:46;;;;;;;12.57;9.65;;;;;;;-144.85;100.00;61331.59;5076584;28;32865;-82
2023/05/05 03:04:21;;;;;;;14.65;10.00;;;;;;;-144.85;100.00;61331.59;5061213;28;32226;-82
2023/05/05 03:06:56;;;;;;;15.35;10.45;;;;;;;-144.85;100.00;61331.59;5061402;28;30813;-83
2023/05/05 03:09:31;;;;;;;12.00;9.80;;;;;;;-144.85;100.00;61331.59;5046205;28;30752;-82
2023/05/05 03:12:02;;;;;;;14.02;10.02;;;;;;;-144.85;100.00;61331.59;5072710;28;32166;-82
2023/05/05 03:14:40;;;;;;;13.52;9.82;;;;;;;-144.85;100.00;61331.59;5061493;28;32612;-82
2023/05/05 03:17:11;;;;;;;13.63;10.00;;;;;;;-144.85;100.00;61331.59;5044636;28;31224;-82
2023/05/05 03:19:41;;;;;;;13.45;10.40;;;;;;;-144.85;100.00;61331.59;5058302;28;32356;-82
2023/05/05 03:22:09;;;;;;;13.68;10.15;;;;;;;-144.85;100.00;61331.59;5060380;28;31309;-81
2023/05/05 03:24:40;;;;;;;14.48;10.63;;;;;;;-144.85;100.00;61331.59;5060972;28;32186;-82
2023/05/05 03:27:09;;;;;;;15.88;10.48;;;;;;;-144.85;100.00;61331.59;5044437;28;31900;-82
2023/05/05 03:29:38;;;;;;;14.88;10.57;;;;;;;-144.85;100.00;61331.59;5059995;28;32039;-82
2023/05/05 03:32:10;;;;;;;13.70;9.80;;;;;;;-144.85;100.00;61331.59;5060525;28;31574;-82
2023/05/05 03:34:39;;;;;;;12.18;9.25;;;;;;;-144.85;100.00;61331.59;5060411;28;31462;-82
2023/05/05 03:37:06;;;;;;;14.93;10.45;;;;;;;-144.85;100.00;61331.59;5060049;28;30788;-81
2023/05/05 03:39:33;;;;;;;12.10;9.98;;;;;;;-144.85;100.00;61331.59;5044048;28;30569;-82
2023/05/05 03:42:00;;;;;;;11.63;9.57;;;;;;;-144.85;100.00;61331.59;5044996;28;32866;-82
2023/05/05 03:44:31;;;;;;;13.32;9.45;;;;;;;-144.85;100.00;61331.59;5062321;28;31455;-82
2023/05/05 03:46:58;;;;;;;14.73;10.00;;;;;;;-144.85;100.00;61331.59;5060023;28;31878;-82
2023/05/05 03:49:27;;;;;;;13.65;9.73;;;;;;;-144.85;100.00;61331.59;5043866;28;31031;-82
2023/05/05 03:51:54;;;;;;;11.95;9.65;;;;;;;-144.85;100.00;61331.59;5074063;28;33245;-81
2023/05/05 03:54:21;;;;;;;13.68;9.63;;;;;;;-144.85;100.00;61331.59;5043547;28;32516;-83
2023/05/05 03:56:48;;;;;;;12.93;9.35;;;;;;;-144.85;100.00;61331.59;5059043;28;31955;-82
2023/05/05 03:59:16;;;;;;;14.55;9.13;;;;;;;-144.85;100.00;61331.59;5042989;28;30443;-82
2023/05/05 04:01:45;;;;;;;14.45;8.77;;;;;;;-144.85;100.00;61331.59;5059165;28;31619;-82
2023/05/05 04:04:12;;;;;;;11.85;8.20;;;;;;;-144.85;100.00;61331.59;5059965;28;31389;-82
2023/05/05 04:06:40;;;;;;;9.50;7.53;;;;;;;-144.85;100.00;61331.59;5060081;28;31342;-82
2023/05/05 04:09:08;;;;;;;9.77;7.40;;;;;;;-144.85;100.00;61331.59;5056170;28;30569;-81
2023/05/05 04:11:36;;;;;;;11.77;7.10;;;;;;;-144.85;100.00;61331.59;5068272;28;32562;-82
2023/05/05 04:14:04;;;;;;;10.10;7.35;;;;;;;-144.85;100.00;61331.59;5074274;28;31605;-82
2023/05/05 04:16:31;;;;;;;8.57;6.85;;;;;;;-144.85;100.00;61331.59;5060146;28;31020;-82
2023/05/05 04:18:58;;;;;;;10.25;7.15;;;;;;;-144.85;100.00;61331.59;5048336;28;30828;-81
2023/05/05 04:21:26;;;;;;;9.75;6.75;;;;;;;-144.85;100.00;61331.59;5071203;28;33206;-81
2023/05/05 04:23:55;;;;;;;9.55;6.95;;;;;;;-144.85;100.00;61331.59;5060079;28;32875;-82
2023/05/05 04:26:22;;;;;;;10.65;6.72;;;;;;;-144.85;100.00;61331.59;5043198;28;30611;-82
2023/05/05 04:28:50;;;;;;;9.52;6.63;;;;;;;-144.85;100.00;61331.59;5044184;28;30446;-82
2023/05/05 04:31:18;;;;;;;8.73;6.80;;;;;;;-144.85;100.00;61331.59;5051369;28;32973;-82
2023/05/05 04:33:46;;;;;;;8.45;6.55;;;;;;;-144.85;100.00;61331.59;5068094;28;31180;-82
2023/05/05 04:36:13;;;;;;;8.75;6.22;;;;;;;-144.85;100.00;61331.59;5057221;28;31136;-81
2023/05/05 04:38:40;;;;;;;10.65;7.07;;;;;;;-144.85;100.00;61331.59;5042985;28;31898;-82
2023/05/05 04:41:08;;;;;;;14.88;8.23;;;;;;;-144.85;100.00;61331.59;5059711;28;32329;-82
2023/05/05 04:43:37;;;;;;;12.65;7.97;;;;;;;-144.85;100.00;61331.59;5043655;28;33023;-82
2023/05/05 04:46:04;;;;;;;10.23;7.60;;;;;;;-144.85;100.00;61331.59;5043112;28;31099;-83
2023/05/05 04:48:36;;;;;;;9.00;7.45;;;;;;;-144.85;100.00;61331.59;5059354;28;32033;-83
2023/05/05 04:51:05;;;;;;;10.80;7.55;;;;;;;-144.85;100.00;61331.59;5039526;28;31888;-81
2023/05/05 04:53:33;;;;;;;10.32;7.53;;;;;;;-144.85;100.00;61331.59;5073468;28;32732;-83
2023/05/05 04:56:01;;;;;;;11.75;8.20;;;;;;;-144.85;100.00;61331.59;5068505;28;32189;-82
2023/05/05 04:58:28;;;;;;;11.00;8.02;;;;;;;-144.85;100.00;61331.59;5065390;28;31865;-82
2023/05/05 05:00:56;;;;;;;15.48;8.25;;;;;;;-144.85;100.00;61331.59;5079935;28;31472;-82
2023/05/05 05:03:23;;;;;;;12.50;8.18;;;;;;;-144.85;100.00;61331.59;5082567;28;31362;-81
2023/05/05 05:05:50;;;;;;;13.20;8.82;;;;;;;-144.85;100.00;61331.59;5060126;28;31616;-82
2023/05/05 05:08:18;;;;;;;14.23;9.32;;;;;;;-144.85;100.00;61331.59;5059007;28;31058;-82
2023/05/05 05:10:45;;;;;;;11.55;9.00;;;;;;;-144.85;100.00;61331.59;5072980;28;31872;-82
2023/05/05 05:13:12;;;;;;;17.42;9.68;;;;;;;-144.85;100.00;61331.59;5056396;28;32976;-82
2023/05/05 05:15:39;;;;;;;14.30;9.70;;;;;;;-144.85;100.00;61331.59;5077711;28;30672;-82
2023/05/05 05:18:07;;;;;;;16.42;10.30;;;;;;;-144.85;100.00;61331.59;5074661;28;30686;-83
2023/05/05 05:20:34;;;;;;;16.75;10.63;;;;;;;-144.85;100.00;61331.59;5062317;28;31199;-82
2023/05/05 05:23:01;;;;;;;13.75;10.60;;;;;;;-144.85;100.00;61331.59;5048065;28;31147;-82
2023/05/05 05:25:30;;;;;;;16.88;11.50;;;;;;;-144.85;100.00;61331.59;5062279;28;31213;-82
2023/05/05 05:27:57;;;;;;;15.15;11.45;;;;;;;-144.85;100.00;61331.59;5095944;28;31440;-83
2023/05/05 05:30:40;;;;;;;14.82;11.63;;;;;;;-144.85;100.00;61331.59;5077495;28;31909;-83
2023/05/05 05:33:09;;;;;;;14.90;11.63;;;;;;;-144.85;100.00;61331.59;5094915;28;32423;-82
2023/05/05 05:35:37;;;;;;;15.80;11.23;;;;;;;-144.85;100.00;61331.59;5046943;28;32588;-82
2023/05/05 05:38:05;;;;;;;16.55;11.48;;;;;;;-144.85;100.00;61331.59;5057945;28;30693;-82
2023/05/05 05:40:32;;;;;;;14.98;11.43;;;;;;;-144.85;100.00;61331.59;5071811;28;32798;-82
2023/05/05 05:42:59;;;;;;;17.45;10.90;;;;;;;-144.85;100.00;61331.59;5069565;28;31997;-81
2023/05/05 05:45:27;;;;;;;17.75;11.45;;;;;;;-144.85;100.00;61331.59;5057059;28;31172;-82
2023/05/05 05:47:55;;;;;;;14.63;11.48;;;;;;;-144.85;100.00;61331.59;5080305;28;30428;-82
2023/05/05 05:50:25;;;;;;;33.88;13.20;;;;;;;-144.85;100.00;61331.59;5077965;28;31418;-82
2023/05/05 05:52:54;;;;;;;17.23;12.27;;;;;;;-144.85;100.00;61331.59;5100089;28;30866;-83
2023/05/05 05:55:21;;;;;;;18.15;12.10;;;;;;;-144.85;100.00;61331.59;5066624;28;31023;-83
2023/05/05 05:57:48;;;;;;;19.48;13.00;;;;;;;-144.85;100.00;61331.59;5049307;28;30722;-83
2023/05/05 06:00:16;;;;;;;17.58;12.55;;;;;;;-144.85;100.00;61331.59;5066072;28;31732;-81
2023/05/05 06:02:50;;;;;;;19.65;13.32;;;;;;;-144.85;100.00;61331.59;5051106;28;32693;-83
2023/05/05 06:05:20;;;;;;;17.42;12.88;;;;;;;-144.85;100.00;61331.59;5074748;28;31957;-83
2023/05/05 06:07:50;;;;;;;16.20;12.95;;;;;;;-144.85;100.00;61331.59;5068039;28;30483;-83
2023/05/05 06:10:18;;;;;;;17.08;13.25;;;;;;;-144.85;100.00;61331.59;5069489;28;33432;-83
2023/05/05 06:13:00;;;;;;;19.65;12.75;;;;;;;-144.85;100.00;61331.59;5073782;28;31030;-80
2023/05/05 06:15:28;;;;;;;18.67;13.25;;;;;;;-144.85;100.00;61331.59;5051584;28;32911;-82
2023/05/05 06:17:56;;;;;;;20.67;14.05;;;;;;;-144.85;100.00;61331.59;5065142;28;32297;-82
2023/05/05 06:20:24;;;;;;;20.88;14.32;;;;;;;-144.85;100.00;61331.59;5062616;28;31402;-82
2023/05/05 06:22:51;;;;;;;22.08;13.32;;;;;;;-144.85;100.00;61331.59;5050689;28;33839;-83
2023/05/05 06:25:18;;;;;;;20.90;14.10;;;;;;;-144.85;100.00;61331.59;5058810;28;31279;-83
2023/05/05 06:27:47;;;;;;;22.50;14.65;;;;;;;-144.85;100.00;61331.59;5077615;28;30733;-84
2023/05/05 06:30:14;;;;;;;21.27;14.70;;;;;;;-144.85;100.00;61331.59;5069629;28;32757;-83
2023/05/05 06:32:41;;;;;;;18.80;14.85;;;;;;;-144.85;100.00;61331.59;5084357;28;32240;-83
2023/05/05 06:35:08;;;;;;;21.30;14.75;;;;;;;-144.85;100.00;61331.59;5070536;28;30903;-83
2023/05/05 06:37:36;;;;;;;21.42;15.85;;;;;;;-144.85;100.00;61331.59;5084351;28;30752;-83
2023/05/05 06:40:03;;;;;;;21.35;15.57;;;;;;;-144.85;100.00;61331.59;5066034;28;31599;-82
2023/05/05 06:42:31;;;;;;;22.55;14.70;;;;;;;-144.85;100.00;61331.59;5106700;28;33152;-83
2023/05/05 06:44:59;;;;;;;19.60;14.23;;;;;;;-144.85;100.00;61331.59;5075172;28;31416;-82
2023/05/05 06:47:26;;;;;;;22.85;14.18;;;;;;;-144.85;100.00;61331.59;5058718;28;30255;-82
2023/05/05 06:49:53;;;;;;;19.27;14.25;;;;;;;-144.85;100.00;61331.59;5070188;28;32540;-81
2023/05/05 06:52:21;;;;;;;18.70;14.20;;;;;;;-144.85;100.00;61331.59;5053013;28;31198;-82
2023/05/05 06:54:48;;;;;;;18.50;13.85;;;;;;;-144.85;100.00;61331.59;5073472;28;30687;-82
2023/05/05 06:57:15;;;;;;;19.48;13.50;;;;;;;-144.85;100.00;61331.59;5084545;28;32068;-83
2023/05/05 06:59:43;;;;;;;19.00;13.32;;;;;;;-144.85;100.00;61331.59;5075342;28;32552;-84
2023/05/05 07:02:10;;;;;;;18.02;13.05;;;;;;;-144.85;100.00;61331.59;5074241;28;30830;-82
2023/05/05 07:04:37;;;;;;;17.35;13.13;;;;;;;-144.85;100.00;61331.59;5094188;28;32336;-84
2023/05/05 07:07:04;;;;;;;20.73;14.00;;;;;;;-144.85;100.00;61331.59;5067148;28;32573;-81
2023/05/05 07:09:31;;;;;;;20.92;14.02;;;;;;;-144.85;100.00;61331.59;5066863;28;31152;-81
2023/05/05 07:11:58;;;;;;;17.75;13.00;;;;;;;-144.85;100.00;61331.59;5084207;28;32277;-82
2023/05/05 07:14:25;;;;;;;18.65;13.65;;;;;;;-144.85;100.00;61331.59;5049564;28;30494;-84
2023/05/05 07:16:53;;;;;;;19.50;12.95;;;;;;;-144.85;100.00;61331.59;5062324;28;31923;-81
2023/05/05 07:19:20;;;;;;;19.40;12.63;;;;;;;-144.85;100.00;61331.59;5045197;28;31583;-81
2023/05/05 07:21:47;;;;;;;15.30;12.00;;;;;;;-144.85;100.00;61331.59;5056261;28;32919;-81
2023/05/05 07:24:14;;;;;;;17.98;12.68;;;;;;;-144.85;100.00;61331.59;5082500;28;33068;-81
2023/05/05 07:26:41;;;;;;;18.20;12.15;;;;;;;-144.85;100.00;61331.59;5079376;28;31415;-82
2023/05/05 07:29:09;;;;;;;19.90;11.45;;;;;;;-144.85;100.00;61331.59;5076364;28;32600;-82
2023/05/05 07:31:36;;;;;;;16.05;11.25;;;;;;;-144.85;100.00;61331.59;5060696;28;31182;-82
2023/05/05 07:34:03;;;;;;;15.43;11.35;;;;;;;-144.85;100.00;61331.59;5079454;28;32872;-81
2023/05/05 07:36:31;;;;;;;16.38;11.27;;;;;;;-144.85;100.00;61331.59;5060729;28;32275;-81
2023/05/05 07:38:59;;;;;;;13.48;9.38;;;;;;;-144.85;100.00;61331.59;5075691;28;32547;-81
2023/05/05 07:41:26;;;;;;;15.75;10.50;;;;;;;-144.85;100.00;61331.59;5060687;28;33488;-81
2023/05/05 07:43:53;;;;;;;13.82;9.95;;;;;;;-144.85;100.00;61331.59;5075847;28;31960;-82
2023/05/05 07:46:20;;;;;;;13.00;9.38;;;;;;;-144.85;100.00;61331.59;5060214;28;31920;-84
2023/05/05 07:48:47;;;;;;;14.98;9.32;;;;;;;-144.85;100.00;61331.59;5060409;28;32886;-82
2023/05/05 07:51:15;;;;;;;12.48;9.15;;;;;;;-144.85;100.00;61331.59;5060660;28;31969;-82
2023/05/05 07:53:42;;;;;;;11.50;9.05;;;;;;;-144.85;100.00;61331.59;5064828;28;32267;-82
2023/05/05 07:56:09;;;;;;;9.85;7.65;;;;;;;-144.85;100.00;61331.59;5087506;28;31446;-81
2023/05/05 07:58:36;;;;;;;9.77;7.38;;;;;;;-144.85;100.00;61331.59;5080540;28;32236;-81
2023/05/05 08:01:05;;;;;;;11.40;8.48;;;;;;;-144.85;100.00;61331.59;5055274;28;31122;-81
2023/05/05 08:03:32;;;;;;;11.38;8.30;;;;;;;-144.85;100.00;61331.59;5078648;28;33759;-81
2023/05/05 08:06:10;;;;;;;14.75;8.15;;;;;;;-144.85;100.00;61331.59;5060870;28;31408;-81
2023/05/05 08:08:37;;;;;;;9.15;7.10;;;;;;;-144.85;100.00;61331.59;5058981;28;31264;-81
2023/05/05 08:11:05;;;;;;;10.57;7.55;;;;;;;-144.85;100.00;61331.59;5078475;28;33051;-81
2023/05/05 08:13:33;;;;;;;8.38;5.38;;;;;;;-144.85;100.00;61331.59;5060003;28;30634;-84
2023/05/05 08:16:00;;;;;;;6.10;4.53;;;;;;;-144.85;100.00;61331.59;5073646;28;30268;-83
2023/05/05 08:18:27;;;;;;;5.88;4.43;;;;;;;-144.85;100.00;61331.59;5060057;28;32501;-83
2023/05/05 08:20:54;;;;;;;6.70;4.30;;;;;;;-144.85;100.00;61331.59;5077500;28;31616;-83
2023/05/05 08:23:21;;;;;;;7.85;5.63;;;;;;;-144.85;100.00;61331.59;5076703;28;32802;-83
2023/05/05 08:25:48;;;;;;;7.38;5.53;;;;;;;-144.85;100.00;61331.59;5080893;28;32486;-83
2023/05/05 08:28:15;;;;;;;7.30;5.38;;;;;;;-144.85;100.00;61331.59;5071172;28;31657;-83
2023/05/05 08:30:43;;;;;;;9.98;5.95;;;;;;;-144.85;100.00;61331.59;5078139;28;31632;-83
2023/05/05 08:33:10;;;;;;;10.20;6.03;;;;;;;-144.85;100.00;61331.59;5060475;28;31540;-83
2023/05/05 08:35:37;;;;;;;7.68;5.55;;;;;;;-144.85;100.00;61331.59;5056730;28;31044;-81
2023/05/05 08:38:04;;;;;;;8.95;5.18;;;;;;;-144.85;100.00;61331.59;5043308;28;33042;-80
2023/05/05 08:40:35;;;;;;;13.52;6.10;;;;;;;-144.85;100.00;61331.59;5078494;28;32358;-80
2023/05/05 08:43:03;;;;;;;10.38;5.72;;;;;;;-144.85;100.00;61331.59;5046195;28;34022;-81
2023/05/05 08:45:31;;;;;;;8.55;3.80;;;;;;;-144.85;100.00;61331.59;5078641;28;31201;-81
2023/05/05 08:48:03;;;;;;;5.95;3.22;;;;;;;-144.85;100.00;61331.59;5059799;28;32832;-81
2023/05/05 08:50:31;;;;;;;8.02;5.20;;;;;;;-144.85;100.00;61331.59;5060617;28;31073;-81
2023/05/05 08:53:10;;;;;;;8.65;5.60;;;;;;;-144.85;100.00;61331.59;5081806;28;32659;-81
2023/05/05 08:55:45;;;;;;;7.43;4.20;;;;;;;-144.85;100.00;61331.59;5061084;28;32305;-81
2023/05/05 08:58:14;;;;;;;6.65;4.45;;;;;;;-144.85;100.00;61331.59;5062684;28;31245;-81
2023/05/05 09:00:41;;;;;;;7.72;4.88;;;;;;;-144.85;100.00;61331.59;5082982;28;33364;-81
2023/05/05 09:03:10;;;;;;;8.38;5.28;;;;;;;-144.85;100.00;61331.59;5102046;28;32357;-81
2023/05/05 09:05:38;;;;;;;8.93;5.55;;;;;;;-144.85;100.00;61331.59;5083617;28;32091;-81
2023/05/05 09:08:08;;;;;;;7.82;4.10;;;;;;;-144.85;100.00;61331.59;5081251;28;32358;-81
2023/05/05 09:10:39;;;;;;;7.10;4.30;;;;;;;-144.85;100.00;61331.59;5081344;28;33179;-80
2023/05/05 09:13:07;;;;;;;20.05;4.85;;;;;;;-144.85;100.00;61331.59;5081660;28;32709;-81
2023/05/05 09:15:34;;;;;;;8.90;4.55;;;;;;;-144.85;100.00;61331.59;5081922;28;31621;-81
2023/05/05 09:18:05;;;;;;;6.82;4.18;;;;;;;-144.85;100.00;61331.59;5063432;28;33528;-81
2023/05/05 09:20:34;;;;;;;5.60;3.90;;;;;;;-144.85;100.00;61331.59;5063383;28;31806;-81
2023/05/05 09:23:14;;;;;;;6.30;3.90;;;;;;;-144.85;100.00;61331.59;5063446;28;30724;-83
2023/05/05 09:26:02;;;;;;;9.88;4.90;;;;;;;-144.85;100.00;61331.59;5096071;28;31742;-83
2023/05/05 09:28:29;;;;;;;6.20;4.40;;;;;;;-144.85;100.00;61331.59;5063852;28;32441;-83
2023/05/05 09:31:14;;;;;;;7.20;4.00;;;;;;;-144.85;100.00;61331.59;5081625;28;32171;-82
2023/05/05 09:33:42;;;;;;;;;;;;;;;-144.85;100.00;61331.59;5047847;28;31028;-82
2023/05/05 09:36:10;;;;;;;5.45;3.30;;;;;;;-144.85;100.00;61331.59;5063075;28;30850;-82
2023/05/05 09:38:37;;;;;;;11.25;3.00;;;;;;;-144.85;100.00;61331.59;5064624;28;32250;-82
2023/05/05 09:41:05;;;;;;;6.75;3.05;;;;;;;-144.85;100.00;61331.59;5063075;28;31698;-83
2023/05/05 09:43:50;;;;;;;6.03;3.15;;;;;;;-144.85;100.00;61331.59;5063282;28;31814;-82
2023/05/05 09:46:18;;;;;;;5.22;3.10;;;;;;;-144.85;100.00;61331.59;5059491;28;31909;-82
2023/05/05 09:48:45;;;;;;;3.75;2.55;;;;;;;-144.85;100.00;61331.59;5061843;28;32599;-82
2023/05/05 09:51:12;;;;;;;6.45;2.30;;;;;;;-144.85;100.00;61331.59;5063055;28;32240;-82
2023/05/05 09:53:40;;;;;;;8.70;2.50;;;;;;;-144.85;100.00;61331.59;5046101;28;32126;-82
2023/05/05 09:56:07;;;;;;;18.48;2.78;;;;;;;-144.85;100.00;61331.59;5062622;28;30614;-82
2023/05/05 09:58:34;;;;;;;8.52;2.88;;;;;;;-144.85;100.00;61331.59;5046600;28;31191;-84
2023/05/05 10:01:02;;;;;;;4.25;2.38;;;;;;;-144.85;100.00;61331.59;5046006;28;31291;-81
2023/05/05 10:03:29;;;;;;;3.47;2.30;;;;;;;-144.85;100.00;61331.59;5059174;28;31192;-81
2023/05/05 10:05:58;;;;;;;5.50;2.03;;;;;;;-144.85;100.00;61331.59;5062286;28;30312;-80
2023/05/05 10:08:30;;;;;;;3.13;1.50;;;;;;;-144.85;100.00;61331.59;5076142;28;32427;-80
2023/05/05 10:10:59;;;;;;;2.85;1.55;;;;;;;-144.85;100.00;61331.59;5092486;28;32909;-81
2023/05/05 10:13:26;;;;;;;5.38;1.90;;;;;;;-144.85;100.00;61331.59;5062940;28;31890;-80
2023/05/05 10:15:55;;;;;;;4.60;2.10;;;;;;;-144.85;100.00;61331.59;5096824;28;31336;-81
2023/05/05 10:18:24;;;;;;;3.55;2.13;;;;;;;-144.85;100.00;61331.59;5081466;28;32036;-80
2023/05/05 10:20:57;;;;;;;5.22;2.67;;;;;;;-144.85;100.00;61331.59;5063208;28;33146;-80
2023/05/05 10:23:35;;;;;;;8.13;3.00;;;;;;;-144.85;100.00;61331.59;5062724;28;31787;-81
2023/05/05 10:26:06;;;;;;;5.68;3.50;;;;;;;-144.85;100.00;61331.59;5061180;28;30148;-82
2023/05/05 10:28:42;;;;;;;5.50;3.75;;;;;;;-144.85;100.00;61331.59;5081218;28;32127;-80
2023/05/05 10:31:45;;;;;;;6.07;3.50;;;;;;;-144.85;100.00;61331.59;5080780;28;31841;-81
2023/05/05 10:34:25;;;;;;;6.10;3.67;;;;;;;-144.85;100.00;61331.59;5051872;28;30955;-81
2023/05/05 10:36:55;;;;;;;8.70;3.72;;;;;;;-144.85;100.00;61331.59;5063398;28;31493;-81
2023/05/05 10:39:25;;;;;;;4.93;3.72;;;;;;;-144.85;100.00;61331.59;5060914;28;32887;-81
2023/05/05 10:41:52;;;;;;;5.10;2.97;;;;;;;-144.85;100.00;61331.59;5062500;28;31392;-86
2023/05/05 10:44:21;;;;;;;5.47;2.28;;;;;;;-144.85;100.00;61331.59;5080531;28;31822;-82
2023/05/05 10:46:49;;;;;;;6.45;2.80;;;;;;;-144.85;100.00;61331.59;5079356;28;32427;-84
2023/05/05 10:49:47;;;;;;;4.18;2.60;;;;;;;-144.85;100.00;61331.59;5049561;28;31293;-82
2023/05/05 10:52:42;;;;;;;4.85;2.30;;;;;;;-144.85;100.00;61331.59;5060513;28;30539;-83
2023/05/05 10:55:15;;;;;;;4.88;2.80;;;;;;;-144.85;100.00;61331.59;5044228;28;30705;-83
2023/05/05 10:57:51;;;;;;;6.53;3.00;;;;;;;-144.85;100.00;61331.59;5037852;28;30594;-83
2023/05/05 11:00:36;;;;;;;7.50;3.65;;;;;;;-144.85;100.00;61331.59;5077259;28;32708;-83
2023/05/05 11:03:30;;;;;;;;;;;;;;;-144.85;100.00;61331.59;5087926;28;31213;-83
2023/05/05 11:06:03;;;;;;;6.78;3.30;;;;;;;-144.85;100.00;61331.59;5058856;28;31868;-83
2023/05/05 11:08:32;;;;;;;4.88;3.20;;;;;;;-144.85;100.00;61331.59;5064807;28;31828;-82
2023/05/05 11:11:00;;;;;;;6.28;3.40;;;;;;;-144.85;100.00;61331.59;5087190;28;32599;-83
2023/05/05 11:13:28;;;;;;;5.85;2.78;;;;;;;-144.85;100.00;61331.59;5056681;28;31286;-83
2023/05/05 11:15:57;;;;;;;6.32;2.97;;;;;;;-144.85;100.00;61331.59;5056974;28;31807;-83